sensor_id;sensor_type;location;lat;lon;timestamp;P1;durP1;ratioP1;P2;durP2;ratioP2
43835;SDS011;39345;43.964;25.340;2023-07-13T00:00:52;17.83;;;12.30;;
43835;SDS011;39345;43.964;25.340;2023-07-13T00:03:19;16.55;;;11.75;;
43835;SDS011;39345;43.964;25.340;2023-07-13T00:05:47;15.80;;;11.90;;
43835;SDS011;39345;43.964;25.340;2023-07-13T00:08:15;13.52;;;11.43;;
43835;SDS011;39345;43.964;25.340;2023-07-13T00:10:42;17.05;;;11.57;;
43835;SDS011;39345;43.964;25.340;2023-07-13T00:13:12;18.55;;;11.77;;
43835;SDS011;39345;43.964;25.340;2023-07-13T00:15:40;16.42;;;11.93;;
43835;SDS011;39345;43.964;25.340;2023-07-13T00:18:08;16.75;;;11.15;;
43835;SDS011;39345;43.964;25.340;2023-07-13T00:20:35;16.45;;;11.38;;
43835;SDS011;39345;43.964;25.340;2023-07-13T00:23:03;16.67;;;12.20;;
43835;SDS011;39345;43.964;25.340;2023-07-13T00:25:30;15.88;;;12.20;;
43835;SDS011;39345;43.964;25.340;2023-07-13T00:27:58;15.50;;;12.20;;
43835;SDS011;39345;43.964;25.340;2023-07-13T00:30:25;36.42;;;12.85;;
43835;SDS011;39345;43.964;25.340;2023-07-13T00:32:53;17.00;;;12.30;;
43835;SDS011;39345;43.964;25.340;2023-07-13T00:35:38;20.75;;;12.18;;
43835;SDS011;39345;43.964;25.340;2023-07-13T00:38:06;19.27;;;12.23;;
43835;SDS011;39345;43.964;25.340;2023-07-13T00:40:33;18.02;;;12.48;;
43835;SDS011;39345;43.964;25.340;2023-07-13T00:43:01;15.82;;;12.88;;
43835;SDS011;39345;43.964;25.340;2023-07-13T00:47:56;15.43;;;12.88;;
43835;SDS011;39345;43.964;25.340;2023-07-13T00:50:24;19.45;;;13.13;;
43835;SDS011;39345;43.964;25.340;2023-07-13T00:52:53;15.43;;;12.57;;
43835;SDS011;39345;43.964;25.340;2023-07-13T00:55:24;17.45;;;12.40;;
43835;SDS011;39345;43.964;25.340;2023-07-13T00:57:52;22.70;;;13.70;;
43835;SDS011;39345;43.964;25.340;2023-07-13T01:00:19;17.20;;;12.75;;
43835;SDS011;39345;43.964;25.340;2023-07-13T01:02:47;16.55;;;12.52;;
43835;SDS011;39345;43.964;25.340;2023-07-13T01:05:17;18.30;;;12.65;;
43835;SDS011;39345;43.964;25.340;2023-07-13T01:07:45;14.75;;;12.18;;
43835;SDS011;39345;43.964;25.340;2023-07-13T01:10:14;17.88;;;12.10;;
43835;SDS011;39345;43.964;25.340;2023-07-13T01:12:42;16.05;;;11.93;;
43835;SDS011;39345;43.964;25.340;2023-07-13T01:17:56;18.10;;;12.60;;
43835;SDS011;39345;43.964;25.340;2023-07-13T01:20:24;15.98;;;12.35;;
43835;SDS011;39345;43.964;25.340;2023-07-13T01:22:52;14.77;;;12.57;;
43835;SDS011;39345;43.964;25.340;2023-07-13T01:25:20;16.55;;;11.93;;
43835;SDS011;39345;43.964;25.340;2023-07-13T01:27:48;16.83;;;11.70;;
43835;SDS011;39345;43.964;25.340;2023-07-13T01:30:15;17.27;;;12.30;;
43835;SDS011;39345;43.964;25.340;2023-07-13T01:32:43;18.75;;;12.15;;
43835;SDS011;39345;43.964;25.340;2023-07-13T01:35:10;17.80;;;11.70;;
43835;SDS011;39345;43.964;25.340;2023-07-13T01:37:39;16.38;;;12.13;;
43835;SDS011;39345;43.964;25.340;2023-07-13T01:40:07;20.25;;;13.95;;
43835;SDS011;39345;43.964;25.340;2023-07-13T01:42:36;15.80;;;12.23;;
43835;SDS011;39345;43.964;25.340;2023-07-13T01:45:04;19.05;;;13.43;;
43835;SDS011;39345;43.964;25.340;2023-07-13T01:47:31;21.60;;;12.90;;
43835;SDS011;39345;43.964;25.340;2023-07-13T01:49:59;21.58;;;13.18;;
43835;SDS011;39345;43.964;25.340;2023-07-13T01:52:26;17.35;;;12.27;;
43835;SDS011;39345;43.964;25.340;2023-07-13T01:54:54;17.02;;;12.73;;
43835;SDS011;39345;43.964;25.340;2023-07-13T01:57:21;19.83;;;12.82;;
43835;SDS011;39345;43.964;25.340;2023-07-13T01:59:49;20.27;;;12.70;;
43835;SDS011;39345;43.964;25.340;2023-07-13T02:02:16;19.10;;;14.32;;
43835;SDS011;39345;43.964;25.340;2023-07-13T02:04:44;20.17;;;14.02;;
43835;SDS011;39345;43.964;25.340;2023-07-13T02:07:12;24.13;;;15.88;;
43835;SDS011;39345;43.964;25.340;2023-07-13T02:09:41;20.73;;;14.82;;
43835;SDS011;39345;43.964;25.340;2023-07-13T02:12:09;21.20;;;15.38;;
43835;SDS011;39345;43.964;25.340;2023-07-13T02:14:36;22.80;;;15.85;;
43835;SDS011;39345;43.964;25.340;2023-07-13T02:17:04;22.00;;;15.48;;
43835;SDS011;39345;43.964;25.340;2023-07-13T02:19:32;20.30;;;14.05;;
43835;SDS011;39345;43.964;25.340;2023-07-13T02:22:00;20.55;;;13.65;;
43835;SDS011;39345;43.964;25.340;2023-07-13T02:24:27;17.92;;;14.18;;
43835;SDS011;39345;43.964;25.340;2023-07-13T02:26:55;19.60;;;15.27;;
43835;SDS011;39345;43.964;25.340;2023-07-13T02:29:23;24.33;;;14.57;;
43835;SDS011;39345;43.964;25.340;2023-07-13T02:31:50;21.95;;;15.05;;
43835;SDS011;39345;43.964;25.340;2023-07-13T02:34:18;22.08;;;13.98;;
43835;SDS011;39345;43.964;25.340;2023-07-13T02:36:45;17.42;;;14.13;;
43835;SDS011;39345;43.964;25.340;2023-07-13T02:39:13;20.92;;;13.35;;
43835;SDS011;39345;43.964;25.340;2023-07-13T02:41:41;17.95;;;14.25;;
43835;SDS011;39345;43.964;25.340;2023-07-13T02:44:08;17.73;;;13.13;;
43835;SDS011;39345;43.964;25.340;2023-07-13T02:46:36;18.20;;;14.25;;
43835;SDS011;39345;43.964;25.340;2023-07-13T02:49:04;22.05;;;13.90;;
43835;SDS011;39345;43.964;25.340;2023-07-13T02:51:32;24.00;;;14.10;;
43835;SDS011;39345;43.964;25.340;2023-07-13T02:54:01;18.40;;;14.13;;
43835;SDS011;39345;43.964;25.340;2023-07-13T02:56:30;26.80;;;14.20;;
43835;SDS011;39345;43.964;25.340;2023-07-13T02:58:58;22.92;;;14.30;;
43835;SDS011;39345;43.964;25.340;2023-07-13T03:01:25;20.55;;;14.07;;
43835;SDS011;39345;43.964;25.340;2023-07-13T03:03:53;19.83;;;14.30;;
43835;SDS011;39345;43.964;25.340;2023-07-13T03:06:22;20.58;;;13.95;;
43835;SDS011;39345;43.964;25.340;2023-07-13T03:08:52;20.00;;;14.23;;
43835;SDS011;39345;43.964;25.340;2023-07-13T03:11:22;22.95;;;14.00;;
43835;SDS011;39345;43.964;25.340;2023-07-13T03:13:56;17.73;;;14.20;;
43835;SDS011;39345;43.964;25.340;2023-07-13T03:16:25;18.83;;;14.13;;
43835;SDS011;39345;43.964;25.340;2023-07-13T03:18:53;19.88;;;14.00;;
43835;SDS011;39345;43.964;25.340;2023-07-13T03:21:21;24.75;;;13.88;;
43835;SDS011;39345;43.964;25.340;2023-07-13T03:23:49;24.48;;;15.98;;
43835;SDS011;39345;43.964;25.340;2023-07-13T03:26:18;17.67;;;14.52;;
43835;SDS011;39345;43.964;25.340;2023-07-13T03:28:47;19.83;;;14.98;;
43835;SDS011;39345;43.964;25.340;2023-07-13T03:31:21;20.95;;;14.50;;
43835;SDS011;39345;43.964;25.340;2023-07-13T03:33:49;17.38;;;13.82;;
43835;SDS011;39345;43.964;25.340;2023-07-13T03:36:19;21.67;;;13.68;;
43835;SDS011;39345;43.964;25.340;2023-07-13T03:38:48;23.17;;;14.57;;
43835;SDS011;39345;43.964;25.340;2023-07-13T03:41:18;27.45;;;14.60;;
43835;SDS011;39345;43.964;25.340;2023-07-13T03:43:47;20.95;;;14.30;;
43835;SDS011;39345;43.964;25.340;2023-07-13T03:46:17;22.05;;;15.02;;
43835;SDS011;39345;43.964;25.340;2023-07-13T03:48:45;23.23;;;14.57;;
43835;SDS011;39345;43.964;25.340;2023-07-13T03:51:14;18.70;;;13.38;;
43835;SDS011;39345;43.964;25.340;2023-07-13T03:53:42;23.42;;;14.60;;
43835;SDS011;39345;43.964;25.340;2023-07-13T03:56:13;22.60;;;14.88;;
43835;SDS011;39345;43.964;25.340;2023-07-13T03:58:44;25.75;;;15.60;;
43835;SDS011;39345;43.964;25.340;2023-07-13T04:01:20;20.70;;;14.98;;
43835;SDS011;39345;43.964;25.340;2023-07-13T04:03:48;23.75;;;15.15;;
43835;SDS011;39345;43.964;25.340;2023-07-13T04:06:20;21.58;;;14.88;;
43835;SDS011;39345;43.964;25.340;2023-07-13T04:08:49;20.42;;;14.65;;
43835;SDS011;39345;43.964;25.340;2023-07-13T04:11:17;23.45;;;15.23;;
43835;SDS011;39345;43.964;25.340;2023-07-13T04:13:45;24.75;;;15.52;;
43835;SDS011;39345;43.964;25.340;2023-07-13T04:16:13;22.67;;;15.85;;
43835;SDS011;39345;43.964;25.340;2023-07-13T04:18:41;20.23;;;15.50;;
43835;SDS011;39345;43.964;25.340;2023-07-13T04:21:09;22.73;;;15.35;;
43835;SDS011;39345;43.964;25.340;2023-07-13T04:23:37;26.55;;;15.88;;
43835;SDS011;39345;43.964;25.340;2023-07-13T04:26:04;24.77;;;15.77;;
43835;SDS011;39345;43.964;25.340;2023-07-13T04:28:33;21.38;;;15.15;;
43835;SDS011;39345;43.964;25.340;2023-07-13T04:31:00;24.08;;;15.27;;
43835;SDS011;39345;43.964;25.340;2023-07-13T04:33:28;23.13;;;14.95;;
43835;SDS011;39345;43.964;25.340;2023-07-13T04:35:55;23.67;;;15.65;;
43835;SDS011;39345;43.964;25.340;2023-07-13T04:38:24;24.58;;;16.70;;
43835;SDS011;39345;43.964;25.340;2023-07-13T04:40:52;23.38;;;15.05;;
43835;SDS011;39345;43.964;25.340;2023-07-13T04:43:19;21.73;;;15.38;;
43835;SDS011;39345;43.964;25.340;2023-07-13T04:45:47;24.52;;;15.57;;
43835;SDS011;39345;43.964;25.340;2023-07-13T04:48:14;20.33;;;14.73;;
43835;SDS011;39345;43.964;25.340;2023-07-13T04:50:42;18.67;;;14.57;;
43835;SDS011;39345;43.964;25.340;2023-07-13T04:53:10;25.38;;;15.38;;
43835;SDS011;39345;43.964;25.340;2023-07-13T04:55:38;23.45;;;15.45;;
43835;SDS011;39345;43.964;25.340;2023-07-13T04:58:06;21.77;;;15.32;;
43835;SDS011;39345;43.964;25.340;2023-07-13T05:00:33;17.75;;;13.80;;
43835;SDS011;39345;43.964;25.340;2023-07-13T05:03:01;18.33;;;13.43;;
43835;SDS011;39345;43.964;25.340;2023-07-13T05:05:28;20.67;;;13.02;;
43835;SDS011;39345;43.964;25.340;2023-07-13T05:07:56;18.48;;;12.30;;
43835;SDS011;39345;43.964;25.340;2023-07-13T05:10:23;16.83;;;11.43;;
43835;SDS011;39345;43.964;25.340;2023-07-13T05:12:51;16.30;;;11.50;;
43835;SDS011;39345;43.964;25.340;2023-07-13T05:15:20;18.38;;;11.10;;
43835;SDS011;39345;43.964;25.340;2023-07-13T05:17:48;13.70;;;11.00;;
43835;SDS011;39345;43.964;25.340;2023-07-13T05:20:16;12.95;;;10.70;;
43835;SDS011;39345;43.964;25.340;2023-07-13T05:22:44;61.10;;;15.25;;
43835;SDS011;39345;43.964;25.340;2023-07-13T05:25:13;368.77;;;49.05;;
43835;SDS011;39345;43.964;25.340;2023-07-13T05:27:41;156.43;;;25.60;;
43835;SDS011;39345;43.964;25.340;2023-07-13T05:30:09;339.55;;;43.65;;
43835;SDS011;39345;43.964;25.340;2023-07-13T05:32:38;28.90;;;12.18;;
43835;SDS011;39345;43.964;25.340;2023-07-13T05:35:06;227.95;;;31.70;;
43835;SDS011;39345;43.964;25.340;2023-07-13T05:37:33;52.72;;;15.32;;
43835;SDS011;39345;43.964;25.340;2023-07-13T05:40:01;22.13;;;11.73;;
43835;SDS011;39345;43.964;25.340;2023-07-13T05:42:29;15.77;;;10.68;;
43835;SDS011;39345;43.964;25.340;2023-07-13T05:44:57;50.40;;;13.63;;
43835;SDS011;39345;43.964;25.340;2023-07-13T05:47:25;16.08;;;12.27;;
43835;SDS011;39345;43.964;25.340;2023-07-13T05:49:52;15.00;;;10.70;;
43835;SDS011;39345;43.964;25.340;2023-07-13T05:52:20;13.07;;;9.82;;
43835;SDS011;39345;43.964;25.340;2023-07-13T05:54:47;14.25;;;10.52;;
43835;SDS011;39345;43.964;25.340;2023-07-13T05:57:15;14.32;;;11.07;;
43835;SDS011;39345;43.964;25.340;2023-07-13T05:59:42;17.15;;;10.70;;
43835;SDS011;39345;43.964;25.340;2023-07-13T06:02:10;14.55;;;10.55;;
43835;SDS011;39345;43.964;25.340;2023-07-13T06:04:37;15.68;;;10.93;;
43835;SDS011;39345;43.964;25.340;2023-07-13T06:07:05;19.58;;;10.90;;
43835;SDS011;39345;43.964;25.340;2023-07-13T06:09:32;14.30;;;10.80;;
43835;SDS011;39345;43.964;25.340;2023-07-13T06:12:00;14.93;;;11.13;;
43835;SDS011;39345;43.964;25.340;2023-07-13T06:14:27;15.60;;;10.27;;
43835;SDS011;39345;43.964;25.340;2023-07-13T06:16:55;17.02;;;11.75;;
43835;SDS011;39345;43.964;25.340;2023-07-13T06:19:22;14.50;;;9.93;;
43835;SDS011;39345;43.964;25.340;2023-07-13T06:21:50;17.58;;;11.65;;
43835;SDS011;39345;43.964;25.340;2023-07-13T06:24:17;13.50;;;11.68;;
43835;SDS011;39345;43.964;25.340;2023-07-13T06:26:44;14.90;;;11.35;;
43835;SDS011;39345;43.964;25.340;2023-07-13T06:29:12;13.95;;;10.13;;
43835;SDS011;39345;43.964;25.340;2023-07-13T06:31:39;13.63;;;10.32;;
43835;SDS011;39345;43.964;25.340;2023-07-13T06:34:07;13.18;;;10.32;;
43835;SDS011;39345;43.964;25.340;2023-07-13T06:36:34;15.13;;;10.60;;
43835;SDS011;39345;43.964;25.340;2023-07-13T06:39:02;13.43;;;10.70;;
43835;SDS011;39345;43.964;25.340;2023-07-13T06:41:30;14.85;;;10.65;;
43835;SDS011;39345;43.964;25.340;2023-07-13T06:43:57;12.75;;;10.18;;
43835;SDS011;39345;43.964;25.340;2023-07-13T06:46:25;12.90;;;9.90;;
43835;SDS011;39345;43.964;25.340;2023-07-13T06:48:53;14.27;;;10.98;;
43835;SDS011;39345;43.964;25.340;2023-07-13T06:51:20;14.55;;;10.57;;
43835;SDS011;39345;43.964;25.340;2023-07-13T06:53:48;13.10;;;10.13;;
43835;SDS011;39345;43.964;25.340;2023-07-13T06:56:16;14.40;;;10.13;;
43835;SDS011;39345;43.964;25.340;2023-07-13T06:58:44;12.30;;;9.30;;
43835;SDS011;39345;43.964;25.340;2023-07-13T07:01:11;13.57;;;9.60;;
43835;SDS011;39345;43.964;25.340;2023-07-13T07:03:39;15.00;;;9.80;;
43835;SDS011;39345;43.964;25.340;2023-07-13T07:06:16;11.85;;;8.88;;
43835;SDS011;39345;43.964;25.340;2023-07-13T07:08:44;15.68;;;10.05;;
43835;SDS011;39345;43.964;25.340;2023-07-13T07:11:13;13.00;;;9.23;;
43835;SDS011;39345;43.964;25.340;2023-07-13T07:13:41;12.00;;;8.80;;
43835;SDS011;39345;43.964;25.340;2023-07-13T07:16:08;15.02;;;10.13;;
43835;SDS011;39345;43.964;25.340;2023-07-13T07:18:36;13.55;;;8.77;;
43835;SDS011;39345;43.964;25.340;2023-07-13T07:21:03;11.95;;;8.52;;
43835;SDS011;39345;43.964;25.340;2023-07-13T07:23:31;14.98;;;7.82;;
43835;SDS011;39345;43.964;25.340;2023-07-13T07:25:59;11.70;;;7.60;;
43835;SDS011;39345;43.964;25.340;2023-07-13T07:28:26;12.65;;;7.88;;
43835;SDS011;39345;43.964;25.340;2023-07-13T07:31:09;11.45;;;8.60;;
43835;SDS011;39345;43.964;25.340;2023-07-13T07:33:40;11.57;;;8.30;;
43835;SDS011;39345;43.964;25.340;2023-07-13T07:36:07;12.85;;;8.93;;
43835;SDS011;39345;43.964;25.340;2023-07-13T07:38:37;14.80;;;8.30;;
43835;SDS011;39345;43.964;25.340;2023-07-13T07:41:05;13.27;;;8.65;;
43835;SDS011;39345;43.964;25.340;2023-07-13T07:43:35;9.40;;;7.40;;
43835;SDS011;39345;43.964;25.340;2023-07-13T07:46:03;19.02;;;7.75;;
43835;SDS011;39345;43.964;25.340;2023-07-13T07:48:31;11.00;;;7.60;;
43835;SDS011;39345;43.964;25.340;2023-07-13T07:50:58;9.52;;;7.03;;
43835;SDS011;39345;43.964;25.340;2023-07-13T07:53:26;20.60;;;8.05;;
43835;SDS011;39345;43.964;25.340;2023-07-13T07:55:53;11.63;;;7.35;;
43835;SDS011;39345;43.964;25.340;2023-07-13T07:58:23;9.68;;;7.63;;
43835;SDS011;39345;43.964;25.340;2023-07-13T08:00:54;10.43;;;7.35;;
43835;SDS011;39345;43.964;25.340;2023-07-13T08:03:24;12.48;;;7.22;;
43835;SDS011;39345;43.964;25.340;2023-07-13T08:05:55;11.20;;;7.13;;
43835;SDS011;39345;43.964;25.340;2023-07-13T08:08:42;11.07;;;6.97;;
43835;SDS011;39345;43.964;25.340;2023-07-13T08:11:10;22.70;;;7.65;;
43835;SDS011;39345;43.964;25.340;2023-07-13T08:13:40;10.23;;;6.50;;
43835;SDS011;39345;43.964;25.340;2023-07-13T08:16:08;10.10;;;6.38;;
43835;SDS011;39345;43.964;25.340;2023-07-13T08:18:35;14.05;;;6.78;;
43835;SDS011;39345;43.964;25.340;2023-07-13T08:21:06;8.05;;;5.97;;
43835;SDS011;39345;43.964;25.340;2023-07-13T08:23:35;9.73;;;6.03;;
43835;SDS011;39345;43.964;25.340;2023-07-13T08:26:03;10.85;;;6.82;;
43835;SDS011;39345;43.964;25.340;2023-07-13T08:28:31;10.80;;;6.32;;
43835;SDS011;39345;43.964;25.340;2023-07-13T08:31:05;7.72;;;5.80;;
43835;SDS011;39345;43.964;25.340;2023-07-13T08:33:36;10.13;;;6.00;;
43835;SDS011;39345;43.964;25.340;2023-07-13T08:36:04;13.10;;;6.80;;
43835;SDS011;39345;43.964;25.340;2023-07-13T08:38:32;10.20;;;6.40;;
43835;SDS011;39345;43.964;25.340;2023-07-13T08:41:00;8.23;;;6.60;;
43835;SDS011;39345;43.964;25.340;2023-07-13T08:43:30;11.20;;;6.30;;
43835;SDS011;39345;43.964;25.340;2023-07-13T08:48:28;11.88;;;6.00;;
43835;SDS011;39345;43.964;25.340;2023-07-13T08:51:00;13.02;;;6.15;;
43835;SDS011;39345;43.964;25.340;2023-07-13T08:53:36;11.93;;;5.80;;
43835;SDS011;39345;43.964;25.340;2023-07-13T08:56:06;12.05;;;6.68;;
43835;SDS011;39345;43.964;25.340;2023-07-13T08:58:37;17.33;;;6.60;;
43835;SDS011;39345;43.964;25.340;2023-07-13T09:04:08;10.23;;;5.15;;
43835;SDS011;39345;43.964;25.340;2023-07-13T09:06:35;14.68;;;6.15;;
43835;SDS011;39345;43.964;25.340;2023-07-13T09:09:10;11.90;;;6.40;;
43835;SDS011;39345;43.964;25.340;2023-07-13T09:12:01;10.00;;;6.10;;
43835;SDS011;39345;43.964;25.340;2023-07-13T09:14:34;15.02;;;7.60;;
43835;SDS011;39345;43.964;25.340;2023-07-13T09:17:08;10.57;;;6.38;;
43835;SDS011;39345;43.964;25.340;2023-07-13T09:19:37;9.80;;;5.43;;
43835;SDS011;39345;43.964;25.340;2023-07-13T09:22:05;13.63;;;6.03;;
43835;SDS011;39345;43.964;25.340;2023-07-13T09:27:27;12.77;;;6.53;;
43835;SDS011;39345;43.964;25.340;2023-07-13T09:32:47;7.60;;;6.00;;
43835;SDS011;39345;43.964;25.340;2023-07-13T09:35:16;10.27;;;6.13;;
43835;SDS011;39345;43.964;25.340;2023-07-13T09:37:44;11.35;;;5.38;;
43835;SDS011;39345;43.964;25.340;2023-07-13T09:40:15;10.68;;;5.93;;
43835;SDS011;39345;43.964;25.340;2023-07-13T09:42:44;13.18;;;5.82;;
43835;SDS011;39345;43.964;25.340;2023-07-13T09:45:12;17.92;;;6.03;;
43835;SDS011;39345;43.964;25.340;2023-07-13T09:47:44;9.20;;;5.38;;
43835;SDS011;39345;43.964;25.340;2023-07-13T09:50:15;13.80;;;5.43;;
43835;SDS011;39345;43.964;25.340;2023-07-13T09:52:47;15.32;;;5.68;;
43835;SDS011;39345;43.964;25.340;2023-07-13T09:55:37;14.45;;;6.13;;
43835;SDS011;39345;43.964;25.340;2023-07-13T09:58:09;10.60;;;5.72;;
43835;SDS011;39345;43.964;25.340;2023-07-13T10:00:37;14.17;;;5.67;;
43835;SDS011;39345;43.964;25.340;2023-07-13T10:05:38;13.50;;;5.97;;
43835;SDS011;39345;43.964;25.340;2023-07-13T10:08:08;15.90;;;5.80;;
43835;SDS011;39345;43.964;25.340;2023-07-13T10:10:42;16.17;;;6.00;;
43835;SDS011;39345;43.964;25.340;2023-07-13T10:13:24;15.48;;;6.68;;
43835;SDS011;39345;43.964;25.340;2023-07-13T10:15:54;17.08;;;8.75;;
43835;SDS011;39345;43.964;25.340;2023-07-13T10:18:21;17.88;;;9.07;;
43835;SDS011;39345;43.964;25.340;2023-07-13T10:20:50;13.02;;;6.82;;
43835;SDS011;39345;43.964;25.340;2023-07-13T10:23:24;15.50;;;6.47;;
43835;SDS011;39345;43.964;25.340;2023-07-13T10:25:53;12.77;;;7.13;;
43835;SDS011;39345;43.964;25.340;2023-07-13T10:28:29;12.13;;;6.78;;
43835;SDS011;39345;43.964;25.340;2023-07-13T10:30:58;13.00;;;6.30;;
43835;SDS011;39345;43.964;25.340;2023-07-13T10:33:26;11.50;;;6.05;;
43835;SDS011;39345;43.964;25.340;2023-07-13T10:36:11;11.82;;;5.63;;
43835;SDS011;39345;43.964;25.340;2023-07-13T10:38:43;14.15;;;4.90;;
43835;SDS011;39345;43.964;25.340;2023-07-13T10:41:15;14.50;;;6.03;;
43835;SDS011;39345;43.964;25.340;2023-07-13T10:43:49;10.48;;;4.78;;
43835;SDS011;39345;43.964;25.340;2023-07-13T10:46:19;11.03;;;5.47;;
43835;SDS011;39345;43.964;25.340;2023-07-13T10:48:49;13.48;;;6.18;;
43835;SDS011;39345;43.964;25.340;2023-07-13T10:51:17;10.93;;;5.97;;
43835;SDS011;39345;43.964;25.340;2023-07-13T10:53:47;14.93;;;6.18;;
43835;SDS011;39345;43.964;25.340;2023-07-13T10:56:27;12.13;;;5.88;;
43835;SDS011;39345;43.964;25.340;2023-07-13T11:01:39;12.57;;;5.63;;
43835;SDS011;39345;43.964;25.340;2023-07-13T11:04:08;15.90;;;7.95;;
43835;SDS011;39345;43.964;25.340;2023-07-13T11:06:39;17.20;;;7.97;;
43835;SDS011;39345;43.964;25.340;2023-07-13T11:12:01;13.93;;;5.28;;
43835;SDS011;39345;43.964;25.340;2023-07-13T11:14:31;11.20;;;4.97;;
43835;SDS011;39345;43.964;25.340;2023-07-13T11:19:52;12.82;;;6.03;;
43835;SDS011;39345;43.964;25.340;2023-07-13T11:22:40;12.27;;;5.47;;
43835;SDS011;39345;43.964;25.340;2023-07-13T11:27:52;12.80;;;5.68;;
43835;SDS011;39345;43.964;25.340;2023-07-13T11:32:52;13.10;;;5.53;;
43835;SDS011;39345;43.964;25.340;2023-07-13T11:35:36;10.00;;;6.05;;
43835;SDS011;39345;43.964;25.340;2023-07-13T11:38:27;13.47;;;7.23;;
43835;SDS011;39345;43.964;25.340;2023-07-13T11:40:55;12.32;;;6.80;;
43835;SDS011;39345;43.964;25.340;2023-07-13T11:43:25;10.55;;;5.63;;
43835;SDS011;39345;43.964;25.340;2023-07-13T11:45:55;16.25;;;9.65;;
43835;SDS011;39345;43.964;25.340;2023-07-13T11:50:51;17.80;;;6.70;;
43835;SDS011;39345;43.964;25.340;2023-07-13T11:53:20;16.77;;;9.13;;
43835;SDS011;39345;43.964;25.340;2023-07-13T11:55:48;21.98;;;9.05;;
43835;SDS011;39345;43.964;25.340;2023-07-13T11:58:17;14.35;;;7.35;;
43835;SDS011;39345;43.964;25.340;2023-07-13T12:00:46;10.50;;;5.35;;
43835;SDS011;39345;43.964;25.340;2023-07-13T12:03:14;13.73;;;7.03;;
43835;SDS011;39345;43.964;25.340;2023-07-13T12:05:54;15.93;;;6.28;;
43835;SDS011;39345;43.964;25.340;2023-07-13T12:08:23;21.00;;;12.70;;
43835;SDS011;39345;43.964;25.340;2023-07-13T12:11:03;16.77;;;9.25;;
43835;SDS011;39345;43.964;25.340;2023-07-13T12:13:37;12.32;;;7.15;;
43835;SDS011;39345;43.964;25.340;2023-07-13T12:16:12;12.90;;;6.07;;
43835;SDS011;39345;43.964;25.340;2023-07-13T12:18:43;14.38;;;7.78;;
43835;SDS011;39345;43.964;25.340;2023-07-13T12:21:16;14.38;;;8.68;;
43835;SDS011;39345;43.964;25.340;2023-07-13T12:23:44;10.32;;;6.30;;
43835;SDS011;39345;43.964;25.340;2023-07-13T12:26:18;13.52;;;5.72;;
43835;SDS011;39345;43.964;25.340;2023-07-13T12:28:51;12.80;;;7.10;;
43835;SDS011;39345;43.964;25.340;2023-07-13T12:37:00;10.57;;;5.65;;
43835;SDS011;39345;43.964;25.340;2023-07-13T12:39:34;12.05;;;6.88;;
43835;SDS011;39345;43.964;25.340;2023-07-13T12:42:13;16.05;;;7.03;;
43835;SDS011;39345;43.964;25.340;2023-07-13T12:44:41;17.20;;;6.55;;
43835;SDS011;39345;43.964;25.340;2023-07-13T12:47:11;13.10;;;5.63;;
43835;SDS011;39345;43.964;25.340;2023-07-13T12:49:43;10.60;;;5.68;;
43835;SDS011;39345;43.964;25.340;2023-07-13T12:52:14;11.70;;;5.22;;
43835;SDS011;39345;43.964;25.340;2023-07-13T12:54:41;9.68;;;5.22;;
43835;SDS011;39345;43.964;25.340;2023-07-13T12:57:25;11.07;;;4.72;;
43835;SDS011;39345;43.964;25.340;2023-07-13T12:59:56;19.95;;;4.90;;
43835;SDS011;39345;43.964;25.340;2023-07-13T13:02:29;11.27;;;4.90;;
43835;SDS011;39345;43.964;25.340;2023-07-13T13:05:00;12.07;;;5.10;;
43835;SDS011;39345;43.964;25.340;2023-07-13T13:07:31;8.98;;;5.28;;
43835;SDS011;39345;43.964;25.340;2023-07-13T13:09:58;8.18;;;5.00;;
43835;SDS011;39345;43.964;25.340;2023-07-13T13:12:26;12.70;;;5.30;;
43835;SDS011;39345;43.964;25.340;2023-07-13T13:14:54;14.10;;;4.82;;
43835;SDS011;39345;43.964;25.340;2023-07-13T13:17:22;9.68;;;5.63;;
43835;SDS011;39345;43.964;25.340;2023-07-13T13:19:51;10.23;;;5.88;;
43835;SDS011;39345;43.964;25.340;2023-07-13T13:22:20;13.55;;;4.97;;
43835;SDS011;39345;43.964;25.340;2023-07-13T13:24:49;12.38;;;5.88;;
43835;SDS011;39345;43.964;25.340;2023-07-13T13:27:17;11.30;;;5.88;;
43835;SDS011;39345;43.964;25.340;2023-07-13T13:29:45;14.25;;;8.43;;
43835;SDS011;39345;43.964;25.340;2023-07-13T13:32:14;15.80;;;5.75;;
43835;SDS011;39345;43.964;25.340;2023-07-13T13:34:42;8.95;;;5.07;;
43835;SDS011;39345;43.964;25.340;2023-07-13T13:37:21;13.15;;;4.50;;
43835;SDS011;39345;43.964;25.340;2023-07-13T13:39:50;13.07;;;6.75;;
43835;SDS011;39345;43.964;25.340;2023-07-13T13:42:34;12.85;;;7.03;;
43835;SDS011;39345;43.964;25.340;2023-07-13T13:45:01;27.65;;;6.65;;
43835;SDS011;39345;43.964;25.340;2023-07-13T13:47:30;11.25;;;4.70;;
43835;SDS011;39345;43.964;25.340;2023-07-13T13:49:59;16.23;;;5.03;;
43835;SDS011;39345;43.964;25.340;2023-07-13T13:52:27;14.40;;;4.93;;
43835;SDS011;39345;43.964;25.340;2023-07-13T13:54:54;11.10;;;4.85;;
43835;SDS011;39345;43.964;25.340;2023-07-13T13:57:23;18.00;;;5.93;;
43835;SDS011;39345;43.964;25.340;2023-07-13T13:59:52;11.20;;;4.90;;
43835;SDS011;39345;43.964;25.340;2023-07-13T14:02:21;14.88;;;4.88;;
43835;SDS011;39345;43.964;25.340;2023-07-13T14:04:50;16.08;;;4.90;;
43835;SDS011;39345;43.964;25.340;2023-07-13T14:07:19;10.48;;;5.00;;
43835;SDS011;39345;43.964;25.340;2023-07-13T14:09:46;13.27;;;5.40;;
43835;SDS011;39345;43.964;25.340;2023-07-13T14:12:14;14.20;;;5.35;;
43835;SDS011;39345;43.964;25.340;2023-07-13T14:14:42;10.77;;;4.70;;
43835;SDS011;39345;43.964;25.340;2023-07-13T14:17:15;10.55;;;4.75;;
43835;SDS011;39345;43.964;25.340;2023-07-13T14:19:46;7.53;;;4.47;;
43835;SDS011;39345;43.964;25.340;2023-07-13T14:22:13;12.68;;;5.10;;
43835;SDS011;39345;43.964;25.340;2023-07-13T14:24:41;17.13;;;5.18;;
43835;SDS011;39345;43.964;25.340;2023-07-13T14:27:09;13.15;;;5.68;;
43835;SDS011;39345;43.964;25.340;2023-07-13T14:29:38;11.77;;;5.40;;
43835;SDS011;39345;43.964;25.340;2023-07-13T14:32:10;10.85;;;5.05;;
43835;SDS011;39345;43.964;25.340;2023-07-13T14:34:38;11.27;;;5.38;;
43835;SDS011;39345;43.964;25.340;2023-07-13T14:37:12;12.02;;;5.53;;
43835;SDS011;39345;43.964;25.340;2023-07-13T14:39:42;15.52;;;5.00;;
43835;SDS011;39345;43.964;25.340;2023-07-13T14:42:10;19.98;;;5.05;;
43835;SDS011;39345;43.964;25.340;2023-07-13T14:44:38;11.15;;;4.75;;
43835;SDS011;39345;43.964;25.340;2023-07-13T14:47:07;9.30;;;4.53;;
43835;SDS011;39345;43.964;25.340;2023-07-13T14:49:36;10.57;;;5.03;;
43835;SDS011;39345;43.964;25.340;2023-07-13T14:52:14;11.35;;;5.18;;
43835;SDS011;39345;43.964;25.340;2023-07-13T14:54:43;8.35;;;5.03;;
43835;SDS011;39345;43.964;25.340;2023-07-13T14:57:13;13.18;;;6.18;;
43835;SDS011;39345;43.964;25.340;2023-07-13T14:59:41;15.65;;;4.88;;
43835;SDS011;39345;43.964;25.340;2023-07-13T15:02:16;13.93;;;5.15;;
43835;SDS011;39345;43.964;25.340;2023-07-13T15:04:44;16.13;;;9.05;;
43835;SDS011;39345;43.964;25.340;2023-07-13T15:07:11;24.67;;;13.65;;
43835;SDS011;39345;43.964;25.340;2023-07-13T15:09:42;10.77;;;6.68;;